sensor_id;sensor_type;location;lat;lon;timestamp;P1;durP1;ratioP1;P2;durP2;ratioP2
47481;SDS011;33219;47.410;9.730;2023-07-20T00:00:32;6.45;;;4.10;;
47481;SDS011;33219;47.410;9.730;2023-07-20T00:03:10;7.97;;;4.40;;
47481;SDS011;33219;47.410;9.730;2023-07-20T00:05:47;7.00;;;3.87;;
47481;SDS011;33219;47.410;9.730;2023-07-20T00:08:16;4.80;;;3.80;;
47481;SDS011;33219;47.410;9.730;2023-07-20T00:10:44;6.42;;;3.87;;
47481;SDS011;33219;47.410;9.730;2023-07-20T00:13:12;5.53;;;4.10;;
47481;SDS011;33219;47.410;9.730;2023-07-20T00:15:41;6.15;;;4.10;;
47481;SDS011;33219;47.410;9.730;2023-07-20T00:18:09;6.22;;;3.80;;
47481;SDS011;33219;47.410;9.730;2023-07-20T00:20:36;5.92;;;4.00;;
47481;SDS011;33219;47.410;9.730;2023-07-20T00:23:04;6.87;;;3.75;;
47481;SDS011;33219;47.410;9.730;2023-07-20T00:25:32;6.33;;;4.00;;
47481;SDS011;33219;47.410;9.730;2023-07-20T00:27:59;9.20;;;4.10;;
47481;SDS011;33219;47.410;9.730;2023-07-20T00:30:27;7.25;;;4.22;;
47481;SDS011;33219;47.410;9.730;2023-07-20T00:32:55;6.62;;;4.30;;
47481;SDS011;33219;47.410;9.730;2023-07-20T00:35:22;9.13;;;4.40;;
47481;SDS011;33219;47.410;9.730;2023-07-20T00:37:50;6.85;;;4.50;;
47481;SDS011;33219;47.410;9.730;2023-07-20T00:40:17;6.08;;;4.22;;
47481;SDS011;33219;47.410;9.730;2023-07-20T00:42:45;7.78;;;4.37;;
47481;SDS011;33219;47.410;9.730;2023-07-20T00:45:12;6.53;;;4.05;;
47481;SDS011;33219;47.410;9.730;2023-07-20T00:47:40;6.00;;;4.00;;
47481;SDS011;33219;47.410;9.730;2023-07-20T00:50:08;5.53;;;4.12;;
47481;SDS011;33219;47.410;9.730;2023-07-20T00:52:37;6.20;;;4.15;;
47481;SDS011;33219;47.410;9.730;2023-07-20T00:55:06;7.92;;;4.20;;
47481;SDS011;33219;47.410;9.730;2023-07-20T00:57:35;6.55;;;4.28;;
47481;SDS011;33219;47.410;9.730;2023-07-20T01:00:03;7.05;;;4.37;;
47481;SDS011;33219;47.410;9.730;2023-07-20T01:02:32;8.90;;;4.60;;
47481;SDS011;33219;47.410;9.730;2023-07-20T01:04:59;7.90;;;4.45;;
47481;SDS011;33219;47.410;9.730;2023-07-20T01:07:37;8.10;;;4.40;;
47481;SDS011;33219;47.410;9.730;2023-07-20T01:12:47;7.37;;;4.28;;
47481;SDS011;33219;47.410;9.730;2023-07-20T01:15:16;6.60;;;4.10;;
47481;SDS011;33219;47.410;9.730;2023-07-20T01:17:44;6.15;;;3.95;;
47481;SDS011;33219;47.410;9.730;2023-07-20T01:20:13;6.20;;;4.00;;
47481;SDS011;33219;47.410;9.730;2023-07-20T01:28:22;6.12;;;3.92;;
47481;SDS011;33219;47.410;9.730;2023-07-20T01:33:54;6.53;;;3.92;;
47481;SDS011;33219;47.410;9.730;2023-07-20T01:36:24;7.17;;;4.10;;
47481;SDS011;33219;47.410;9.730;2023-07-20T01:38:53;7.17;;;4.20;;
47481;SDS011;33219;47.410;9.730;2023-07-20T01:41:22;7.22;;;4.45;;
47481;SDS011;33219;47.410;9.730;2023-07-20T01:43:50;9.28;;;4.05;;
47481;SDS011;33219;47.410;9.730;2023-07-20T01:46:17;7.42;;;3.95;;
47481;SDS011;33219;47.410;9.730;2023-07-20T01:48:46;5.75;;;4.10;;
47481;SDS011;33219;47.410;9.730;2023-07-20T01:51:13;6.60;;;3.85;;
47481;SDS011;33219;47.410;9.730;2023-07-20T01:53:43;6.92;;;4.05;;
47481;SDS011;33219;47.410;9.730;2023-07-20T01:56:10;5.12;;;3.60;;
47481;SDS011;33219;47.410;9.730;2023-07-20T01:58:38;6.40;;;4.17;;
47481;SDS011;33219;47.410;9.730;2023-07-20T02:01:06;8.45;;;4.12;;
47481;SDS011;33219;47.410;9.730;2023-07-20T02:03:33;5.47;;;3.75;;
47481;SDS011;33219;47.410;9.730;2023-07-20T02:06:01;5.25;;;3.50;;
47481;SDS011;33219;47.410;9.730;2023-07-20T02:08:30;5.37;;;3.70;;
47481;SDS011;33219;47.410;9.730;2023-07-20T02:10:58;8.95;;;4.15;;
47481;SDS011;33219;47.410;9.730;2023-07-20T02:13:25;6.80;;;4.03;;
47481;SDS011;33219;47.410;9.730;2023-07-20T02:15:53;6.53;;;3.60;;
47481;SDS011;33219;47.410;9.730;2023-07-20T02:18:20;6.55;;;3.77;;
47481;SDS011;33219;47.410;9.730;2023-07-20T02:20:48;6.50;;;4.00;;
47481;SDS011;33219;47.410;9.730;2023-07-20T02:23:16;8.23;;;4.17;;
47481;SDS011;33219;47.410;9.730;2023-07-20T02:25:44;6.15;;;4.10;;
47481;SDS011;33219;47.410;9.730;2023-07-20T02:28:14;7.75;;;3.77;;
47481;SDS011;33219;47.410;9.730;2023-07-20T02:30:42;6.72;;;3.40;;
47481;SDS011;33219;47.410;9.730;2023-07-20T02:33:10;7.08;;;3.35;;
47481;SDS011;33219;47.410;9.730;2023-07-20T02:35:37;5.00;;;3.27;;
47481;SDS011;33219;47.410;9.730;2023-07-20T02:38:06;5.28;;;3.17;;
47481;SDS011;33219;47.410;9.730;2023-07-20T02:40:34;5.58;;;3.42;;
47481;SDS011;33219;47.410;9.730;2023-07-20T02:43:01;7.08;;;3.40;;
47481;SDS011;33219;47.410;9.730;2023-07-20T02:45:29;4.10;;;3.00;;
47481;SDS011;33219;47.410;9.730;2023-07-20T02:47:56;7.47;;;3.17;;
47481;SDS011;33219;47.410;9.730;2023-07-20T02:50:24;5.05;;;2.90;;
47481;SDS011;33219;47.410;9.730;2023-07-20T02:52:51;7.05;;;2.98;;
47481;SDS011;33219;47.410;9.730;2023-07-20T02:55:19;4.80;;;2.80;;
47481;SDS011;33219;47.410;9.730;2023-07-20T02:57:47;6.37;;;2.83;;
47481;SDS011;33219;47.410;9.730;2023-07-20T03:00:14;5.28;;;2.85;;
47481;SDS011;33219;47.410;9.730;2023-07-20T03:02:42;6.25;;;2.85;;
47481;SDS011;33219;47.410;9.730;2023-07-20T03:05:10;6.45;;;3.05;;
47481;SDS011;33219;47.410;9.730;2023-07-20T03:07:37;5.20;;;3.05;;
47481;SDS011;33219;47.410;9.730;2023-07-20T03:10:05;5.78;;;2.62;;
47481;SDS011;33219;47.410;9.730;2023-07-20T03:12:36;5.78;;;2.85;;
47481;SDS011;33219;47.410;9.730;2023-07-20T03:15:04;7.78;;;2.90;;
47481;SDS011;33219;47.410;9.730;2023-07-20T03:17:32;4.55;;;2.60;;
47481;SDS011;33219;47.410;9.730;2023-07-20T03:19:59;4.17;;;2.40;;
47481;SDS011;33219;47.410;9.730;2023-07-20T03:22:28;6.67;;;2.85;;
47481;SDS011;33219;47.410;9.730;2023-07-20T03:24:56;4.40;;;2.70;;
47481;SDS011;33219;47.410;9.730;2023-07-20T03:27:24;4.62;;;2.60;;
47481;SDS011;33219;47.410;9.730;2023-07-20T03:29:51;6.00;;;2.77;;
47481;SDS011;33219;47.410;9.730;2023-07-20T03:32:20;5.22;;;2.75;;
47481;SDS011;33219;47.410;9.730;2023-07-20T03:34:47;5.35;;;2.70;;
47481;SDS011;33219;47.410;9.730;2023-07-20T03:37:15;4.28;;;2.62;;
47481;SDS011;33219;47.410;9.730;2023-07-20T03:39:42;5.08;;;2.80;;
47481;SDS011;33219;47.410;9.730;2023-07-20T03:42:10;4.80;;;2.90;;
47481;SDS011;33219;47.410;9.730;2023-07-20T03:44:37;6.53;;;3.10;;
47481;SDS011;33219;47.410;9.730;2023-07-20T03:47:05;6.85;;;2.92;;
47481;SDS011;33219;47.410;9.730;2023-07-20T03:49:32;4.83;;;2.67;;
47481;SDS011;33219;47.410;9.730;2023-07-20T03:52:00;4.62;;;2.67;;
47481;SDS011;33219;47.410;9.730;2023-07-20T03:54:30;4.53;;;2.72;;
47481;SDS011;33219;47.410;9.730;2023-07-20T03:56:57;6.40;;;3.10;;
47481;SDS011;33219;47.410;9.730;2023-07-20T03:59:26;5.45;;;2.98;;
47481;SDS011;33219;47.410;9.730;2023-07-20T04:01:54;6.45;;;2.95;;
47481;SDS011;33219;47.410;9.730;2023-07-20T04:04:21;5.40;;;2.70;;
47481;SDS011;33219;47.410;9.730;2023-07-20T04:06:49;4.87;;;2.80;;
47481;SDS011;33219;47.410;9.730;2023-07-20T04:09:16;5.20;;;2.70;;
47481;SDS011;33219;47.410;9.730;2023-07-20T04:11:44;5.22;;;3.10;;
47481;SDS011;33219;47.410;9.730;2023-07-20T04:14:12;4.95;;;2.75;;
47481;SDS011;33219;47.410;9.730;2023-07-20T04:16:39;5.15;;;2.87;;
47481;SDS011;33219;47.410;9.730;2023-07-20T04:19:07;4.92;;;2.60;;
47481;SDS011;33219;47.410;9.730;2023-07-20T04:21:39;6.65;;;3.00;;
47481;SDS011;33219;47.410;9.730;2023-07-20T04:24:05;4.20;;;2.90;;
47481;SDS011;33219;47.410;9.730;2023-07-20T04:26:33;5.72;;;2.92;;
47481;SDS011;33219;47.410;9.730;2023-07-20T04:29:01;5.87;;;3.08;;
47481;SDS011;33219;47.410;9.730;2023-07-20T04:33:59;6.42;;;2.87;;
47481;SDS011;33219;47.410;9.730;2023-07-20T04:36:26;4.00;;;2.85;;
47481;SDS011;33219;47.410;9.730;2023-07-20T04:38:54;5.70;;;2.80;;
47481;SDS011;33219;47.410;9.730;2023-07-20T04:41:21;6.12;;;3.00;;
47481;SDS011;33219;47.410;9.730;2023-07-20T04:43:51;5.47;;;3.05;;
47481;SDS011;33219;47.410;9.730;2023-07-20T04:46:18;5.05;;;3.17;;
47481;SDS011;33219;47.410;9.730;2023-07-20T04:48:47;4.65;;;2.83;;
47481;SDS011;33219;47.410;9.730;2023-07-20T04:51:14;5.95;;;3.20;;
47481;SDS011;33219;47.410;9.730;2023-07-20T04:53:43;6.10;;;3.25;;
47481;SDS011;33219;47.410;9.730;2023-07-20T04:56:11;5.37;;;3.08;;
47481;SDS011;33219;47.410;9.730;2023-07-20T04:58:38;4.08;;;2.72;;
47481;SDS011;33219;47.410;9.730;2023-07-20T05:01:06;5.92;;;2.72;;
47481;SDS011;33219;47.410;9.730;2023-07-20T05:03:35;6.33;;;3.30;;
47481;SDS011;33219;47.410;9.730;2023-07-20T05:06:02;4.35;;;2.90;;
47481;SDS011;33219;47.410;9.730;2023-07-20T05:08:30;5.25;;;3.22;;
47481;SDS011;33219;47.410;9.730;2023-07-20T05:10:57;5.47;;;3.02;;
47481;SDS011;33219;47.410;9.730;2023-07-20T05:13:26;5.65;;;3.25;;
47481;SDS011;33219;47.410;9.730;2023-07-20T05:15:53;5.55;;;2.95;;
47481;SDS011;33219;47.410;9.730;2023-07-20T05:18:21;6.50;;;3.60;;
47481;SDS011;33219;47.410;9.730;2023-07-20T05:20:50;7.25;;;3.50;;
47481;SDS011;33219;47.410;9.730;2023-07-20T05:23:18;6.83;;;3.35;;
47481;SDS011;33219;47.410;9.730;2023-07-20T05:25:46;5.05;;;3.40;;
47481;SDS011;33219;47.410;9.730;2023-07-20T05:28:14;4.90;;;3.20;;
47481;SDS011;33219;47.410;9.730;2023-07-20T05:30:41;7.10;;;3.02;;
47481;SDS011;33219;47.410;9.730;2023-07-20T05:33:09;5.72;;;3.47;;
47481;SDS011;33219;47.410;9.730;2023-07-20T05:35:36;6.20;;;3.42;;
47481;SDS011;33219;47.410;9.730;2023-07-20T05:38:04;7.08;;;3.25;;
47481;SDS011;33219;47.410;9.730;2023-07-20T05:40:32;7.47;;;3.58;;
47481;SDS011;33219;47.410;9.730;2023-07-20T05:42:59;6.92;;;3.77;;
47481;SDS011;33219;47.410;9.730;2023-07-20T05:45:27;7.45;;;3.30;;
47481;SDS011;33219;47.410;9.730;2023-07-20T05:47:54;7.70;;;3.47;;
47481;SDS011;33219;47.410;9.730;2023-07-20T05:50:22;6.72;;;3.15;;
47481;SDS011;33219;47.410;9.730;2023-07-20T05:52:52;5.08;;;3.60;;
47481;SDS011;33219;47.410;9.730;2023-07-20T05:55:19;7.65;;;3.80;;
47481;SDS011;33219;47.410;9.730;2023-07-20T05:57:47;5.58;;;3.33;;
47481;SDS011;33219;47.410;9.730;2023-07-20T06:00:15;6.12;;;3.40;;
47481;SDS011;33219;47.410;9.730;2023-07-20T06:02:45;5.87;;;3.27;;
47481;SDS011;33219;47.410;9.730;2023-07-20T06:05:13;4.70;;;3.30;;
47481;SDS011;33219;47.410;9.730;2023-07-20T06:07:41;5.55;;;2.77;;
47481;SDS011;33219;47.410;9.730;2023-07-20T06:10:08;5.83;;;2.80;;
47481;SDS011;33219;47.410;9.730;2023-07-20T06:12:36;8.25;;;3.50;;
47481;SDS011;33219;47.410;9.730;2023-07-20T06:15:04;6.03;;;3.08;;
47481;SDS011;33219;47.410;9.730;2023-07-20T06:17:32;4.95;;;3.22;;
47481;SDS011;33219;47.410;9.730;2023-07-20T06:20:00;5.15;;;2.90;;
47481;SDS011;33219;47.410;9.730;2023-07-20T06:22:27;5.53;;;3.02;;
47481;SDS011;33219;47.410;9.730;2023-07-20T06:24:55;4.58;;;2.90;;
47481;SDS011;33219;47.410;9.730;2023-07-20T06:27:22;6.25;;;2.47;;
47481;SDS011;33219;47.410;9.730;2023-07-20T06:29:50;6.30;;;2.37;;
47481;SDS011;33219;47.410;9.730;2023-07-20T06:32:17;7.97;;;2.58;;
47481;SDS011;33219;47.410;9.730;2023-07-20T06:34:45;5.85;;;2.55;;
47481;SDS011;33219;47.410;9.730;2023-07-20T06:37:13;7.33;;;3.17;;
47481;SDS011;33219;47.410;9.730;2023-07-20T06:39:40;4.25;;;2.50;;
47481;SDS011;33219;47.410;9.730;2023-07-20T06:42:08;4.17;;;2.40;;
47481;SDS011;33219;47.410;9.730;2023-07-20T06:44:35;5.50;;;2.40;;
47481;SDS011;33219;47.410;9.730;2023-07-20T06:47:03;7.60;;;2.37;;
47481;SDS011;33219;47.410;9.730;2023-07-20T06:49:30;5.42;;;2.45;;
47481;SDS011;33219;47.410;9.730;2023-07-20T06:51:58;7.95;;;2.45;;
47481;SDS011;33219;47.410;9.730;2023-07-20T06:54:25;4.28;;;2.62;;
47481;SDS011;33219;47.410;9.730;2023-07-20T06:56:53;3.40;;;2.42;;
47481;SDS011;33219;47.410;9.730;2023-07-20T06:59:21;5.90;;;2.55;;
47481;SDS011;33219;47.410;9.730;2023-07-20T07:01:50;4.95;;;2.60;;
47481;SDS011;33219;47.410;9.730;2023-07-20T07:04:17;4.87;;;2.60;;
47481;SDS011;33219;47.410;9.730;2023-07-20T07:06:45;4.28;;;2.40;;
47481;SDS011;33219;47.410;9.730;2023-07-20T07:09:12;3.90;;;2.35;;
47481;SDS011;33219;47.410;9.730;2023-07-20T07:11:40;5.60;;;2.12;;
47481;SDS011;33219;47.410;9.730;2023-07-20T07:17:30;4.47;;;2.45;;
47481;SDS011;33219;47.410;9.730;2023-07-20T07:19:58;5.75;;;2.40;;
47481;SDS011;33219;47.410;9.730;2023-07-20T07:22:26;7.03;;;2.37;;
47481;SDS011;33219;47.410;9.730;2023-07-20T07:24:53;4.15;;;2.15;;
47481;SDS011;33219;47.410;9.730;2023-07-20T07:27:21;5.50;;;2.10;;
47481;SDS011;33219;47.410;9.730;2023-07-20T07:29:48;5.17;;;1.90;;
47481;SDS011;33219;47.410;9.730;2023-07-20T07:32:16;5.35;;;1.90;;
47481;SDS011;33219;47.410;9.730;2023-07-20T07:34:44;3.98;;;2.20;;
47481;SDS011;33219;47.410;9.730;2023-07-20T07:37:13;4.03;;;2.12;;
47481;SDS011;33219;47.410;9.730;2023-07-20T07:39:41;4.00;;;1.90;;
47481;SDS011;33219;47.410;9.730;2023-07-20T07:42:08;4.47;;;1.98;;
47481;SDS011;33219;47.410;9.730;2023-07-20T07:44:36;4.58;;;2.20;;
47481;SDS011;33219;47.410;9.730;2023-07-20T07:47:03;4.22;;;2.10;;
47481;SDS011;33219;47.410;9.730;2023-07-20T07:49:31;4.25;;;2.35;;
47481;SDS011;33219;47.410;9.730;2023-07-20T07:51:59;3.65;;;2.22;;
47481;SDS011;33219;47.410;9.730;2023-07-20T07:54:28;4.58;;;2.12;;
47481;SDS011;33219;47.410;9.730;2023-07-20T07:56:56;3.92;;;2.30;;
47481;SDS011;33219;47.410;9.730;2023-07-20T07:59:24;6.28;;;2.10;;
47481;SDS011;33219;47.410;9.730;2023-07-20T08:01:51;4.08;;;2.10;;
47481;SDS011;33219;47.410;9.730;2023-07-20T08:04:19;4.12;;;2.22;;
47481;SDS011;33219;47.410;9.730;2023-07-20T08:06:47;5.15;;;2.35;;
47481;SDS011;33219;47.410;9.730;2023-07-20T08:09:14;4.12;;;2.10;;
47481;SDS011;33219;47.410;9.730;2023-07-20T08:11:42;4.92;;;2.50;;
47481;SDS011;33219;47.410;9.730;2023-07-20T08:14:09;5.17;;;2.30;;
47481;SDS011;33219;47.410;9.730;2023-07-20T08:16:37;5.60;;;2.40;;
47481;SDS011;33219;47.410;9.730;2023-07-20T08:19:05;7.00;;;2.70;;
47481;SDS011;33219;47.410;9.730;2023-07-20T08:21:32;7.92;;;3.90;;
47481;SDS011;33219;47.410;9.730;2023-07-20T08:24:00;4.25;;;2.72;;
47481;SDS011;33219;47.410;9.730;2023-07-20T08:26:27;5.33;;;2.47;;
47481;SDS011;33219;47.410;9.730;2023-07-20T08:28:55;4.53;;;2.67;;
47481;SDS011;33219;47.410;9.730;2023-07-20T08:31:22;5.08;;;2.55;;
47481;SDS011;33219;47.410;9.730;2023-07-20T08:33:50;5.28;;;2.42;;
47481;SDS011;33219;47.410;9.730;2023-07-20T08:36:18;3.80;;;2.50;;
47481;SDS011;33219;47.410;9.730;2023-07-20T08:38:45;4.97;;;2.62;;
47481;SDS011;33219;47.410;9.730;2023-07-20T08:41:14;4.00;;;2.35;;
47481;SDS011;33219;47.410;9.730;2023-07-20T08:43:42;5.78;;;2.40;;
47481;SDS011;33219;47.410;9.730;2023-07-20T08:46:12;5.22;;;2.50;;
47481;SDS011;33219;47.410;9.730;2023-07-20T08:48:41;5.22;;;2.60;;
47481;SDS011;33219;47.410;9.730;2023-07-20T08:51:10;4.72;;;2.47;;
47481;SDS011;33219;47.410;9.730;2023-07-20T08:53:39;5.53;;;2.52;;
47481;SDS011;33219;47.410;9.730;2023-07-20T08:56:06;5.87;;;2.20;;
47481;SDS011;33219;47.410;9.730;2023-07-20T08:58:37;4.75;;;2.40;;
47481;SDS011;33219;47.410;9.730;2023-07-20T09:01:05;6.47;;;3.00;;
47481;SDS011;33219;47.410;9.730;2023-07-20T09:03:34;6.03;;;2.55;;
47481;SDS011;33219;47.410;9.730;2023-07-20T09:06:03;5.03;;;2.62;;
47481;SDS011;33219;47.410;9.730;2023-07-20T09:08:31;4.08;;;2.20;;
47481;SDS011;33219;47.410;9.730;2023-07-20T09:10:59;6.45;;;2.30;;
47481;SDS011;33219;47.410;9.730;2023-07-20T09:13:27;5.50;;;2.40;;
47481;SDS011;33219;47.410;9.730;2023-07-20T09:15:54;5.65;;;2.52;;
47481;SDS011;33219;47.410;9.730;2023-07-20T09:18:25;6.25;;;2.55;;
47481;SDS011;33219;47.410;9.730;2023-07-20T09:21:01;4.72;;;2.50;;
47481;SDS011;33219;47.410;9.730;2023-07-20T09:23:33;3.98;;;2.45;;
47481;SDS011;33219;47.410;9.730;2023-07-20T09:26:13;6.83;;;2.50;;
47481;SDS011;33219;47.410;9.730;2023-07-20T09:28:42;4.12;;;2.60;;
47481;SDS011;33219;47.410;9.730;2023-07-20T09:31:17;4.78;;;2.40;;
47481;SDS011;33219;47.410;9.730;2023-07-20T09:33:46;5.67;;;2.60;;
47481;SDS011;33219;47.410;9.730;2023-07-20T09:36:14;4.17;;;2.15;;
47481;SDS011;33219;47.410;9.730;2023-07-20T09:38:42;6.35;;;2.60;;
47481;SDS011;33219;47.410;9.730;2023-07-20T09:41:13;3.58;;;2.33;;
47481;SDS011;33219;47.410;9.730;2023-07-20T09:43:41;4.62;;;2.45;;
47481;SDS011;33219;47.410;9.730;2023-07-20T09:46:09;5.65;;;2.50;;
47481;SDS011;33219;47.410;9.730;2023-07-20T09:48:37;4.50;;;2.60;;
47481;SDS011;33219;47.410;9.730;2023-07-20T09:51:04;5.60;;;2.67;;
47481;SDS011;33219;47.410;9.730;2023-07-20T09:53:34;5.10;;;2.17;;
47481;SDS011;33219;47.410;9.730;2023-07-20T09:56:01;5.58;;;2.35;;
47481;SDS011;33219;47.410;9.730;2023-07-20T09:58:29;4.47;;;2.30;;
47481;SDS011;33219;47.410;9.730;2023-07-20T10:01:00;6.12;;;2.65;;
47481;SDS011;33219;47.410;9.730;2023-07-20T10:06:00;5.03;;;2.30;;
47481;SDS011;33219;47.410;9.730;2023-07-20T10:08:29;3.67;;;2.47;;
47481;SDS011;33219;47.410;9.730;2023-07-20T10:10:59;3.40;;;2.27;;
47481;SDS011;33219;47.410;9.730;2023-07-20T10:13:29;4.78;;;2.60;;
47481;SDS011;33219;47.410;9.730;2023-07-20T10:16:07;4.45;;;2.30;;
47481;SDS011;33219;47.410;9.730;2023-07-20T10:21:06;8.53;;;5.47;;
47481;SDS011;33219;47.410;9.730;2023-07-20T10:23:35;5.45;;;2.90;;
47481;SDS011;33219;47.410;9.730;2023-07-20T10:26:05;4.28;;;2.58;;
47481;SDS011;33219;47.410;9.730;2023-07-20T10:28:34;4.33;;;2.70;;
47481;SDS011;33219;47.410;9.730;2023-07-20T10:31:02;4.65;;;2.33;;
47481;SDS011;33219;47.410;9.730;2023-07-20T10:33:30;5.50;;;2.30;;
47481;SDS011;33219;47.410;9.730;2023-07-20T10:36:02;5.12;;;2.95;;
47481;SDS011;33219;47.410;9.730;2023-07-20T10:41:17;5.40;;;2.10;;
47481;SDS011;33219;47.410;9.730;2023-07-20T10:43:46;4.62;;;2.08;;
47481;SDS011;33219;47.410;9.730;2023-07-20T10:46:15;4.03;;;2.65;;
47481;SDS011;33219;47.410;9.730;2023-07-20T10:49:04;6.57;;;2.83;;
47481;SDS011;33219;47.410;9.730;2023-07-20T10:51:39;5.00;;;2.62;;
47481;SDS011;33219;47.410;9.730;2023-07-20T10:56:49;5.22;;;2.30;;
47481;SDS011;33219;47.410;9.730;2023-07-20T11:01:56;4.55;;;2.10;;
47481;SDS011;33219;47.410;9.730;2023-07-20T11:04:38;4.75;;;2.00;;
47481;SDS011;33219;47.410;9.730;2023-07-20T11:07:07;6.60;;;2.20;;
47481;SDS011;33219;47.410;9.730;2023-07-20T11:09:39;4.28;;;1.98;;
47481;SDS011;33219;47.410;9.730;2023-07-20T11:12:10;4.25;;;2.27;;
47481;SDS011;33219;47.410;9.730;2023-07-20T11:14:53;3.37;;;2.08;;
47481;SDS011;33219;47.410;9.730;2023-07-20T11:17:12;3.17;;;2.10;;
47481;SDS011;33219;47.410;9.730;2023-07-20T11:19:41;4.72;;;2.55;;
47481;SDS011;33219;47.410;9.730;2023-07-20T11:22:09;4.55;;;2.33;;
47481;SDS011;33219;47.410;9.730;2023-07-20T11:24:38;3.40;;;2.10;;
47481;SDS011;33219;47.410;9.730;2023-07-20T11:27:06;6.70;;;2.40;;
47481;SDS011;33219;47.410;9.730;2023-07-20T11:29:34;4.80;;;2.40;;
47481;SDS011;33219;47.410;9.730;2023-07-20T11:32:02;4.20;;;2.02;;
47481;SDS011;33219;47.410;9.730;2023-07-20T11:34:30;4.35;;;2.00;;
47481;SDS011;33219;47.410;9.730;2023-07-20T11:36:59;3.92;;;1.90;;
47481;SDS011;33219;47.410;9.730;2023-07-20T11:39:27;3.65;;;2.02;;
47481;SDS011;33219;47.410;9.730;2023-07-20T11:41:56;3.40;;;1.98;;
47481;SDS011;33219;47.410;9.730;2023-07-20T11:44:25;4.75;;;2.02;;
47481;SDS011;33219;47.410;9.730;2023-07-20T11:47:00;3.90;;;2.30;;
47481;SDS011;33219;47.410;9.730;2023-07-20T11:49:38;3.92;;;2.20;;
47481;SDS011;33219;47.410;9.730;2023-07-20T11:52:07;2.83;;;2.08;;
47481;SDS011;33219;47.410;9.730;2023-07-20T11:54:38;5.35;;;1.92;;
47481;SDS011;33219;47.410;9.730;2023-07-20T11:57:06;4.33;;;2.35;;
47481;SDS011;33219;47.410;9.730;2023-07-20T11:59:35;6.40;;;2.37;;
47481;SDS011;33219;47.410;9.730;2023-07-20T12:02:03;6.37;;;2.50;;
47481;SDS011;33219;47.410;9.730;2023-07-20T12:04:32;4.85;;;2.55;;
47481;SDS011;33219;47.410;9.730;2023-07-20T12:07:00;5.00;;;2.60;;
47481;SDS011;33219;47.410;9.730;2023-07-20T12:09:28;5.58;;;2.45;;
47481;SDS011;33219;47.410;9.730;2023-07-20T12:11:56;5.08;;;2.22;;
47481;SDS011;33219;47.410;9.730;2023-07-20T12:14:25;4.22;;;2.33;;
47481;SDS011;33219;47.410;9.730;2023-07-20T12:16:52;6.20;;;3.45;;
47481;SDS011;33219;47.410;9.730;2023-07-20T12:19:20;5.53;;;2.47;;
47481;SDS011;33219;47.410;9.730;2023-07-20T12:21:49;5.00;;;2.77;;
47481;SDS011;33219;47.410;9.730;2023-07-20T12:24:18;4.10;;;2.37;;
47481;SDS011;33219;47.410;9.730;2023-07-20T12:26:46;5.53;;;2.65;;
47481;SDS011;33219;47.410;9.730;2023-07-20T12:29:13;4.87;;;2.42;;
47481;SDS011;33219;47.410;9.730;2023-07-20T12:31:41;6.40;;;3.00;;
47481;SDS011;33219;47.410;9.730;2023-07-20T12:34:09;5.58;;;2.50;;
47481;SDS011;33219;47.410;9.730;2023-07-20T12:36:36;3.80;;;2.20;;
47481;SDS011;33219;47.410;9.730;2023-07-20T12:39:04;5.10;;;3.02;;
47481;SDS011;33219;47.410;9.730;2023-07-20T12:41:32;3.92;;;2.47;;
47481;SDS011;33219;47.410;9.730;2023-07-20T12:43:59;4.80;;;2.75;;
47481;SDS011;33219;47.410;9.730;2023-07-20T12:46:27;4.15;;;2.75;;
47481;SDS011;33219;47.410;9.730;2023-07-20T12:48:55;5.67;;;2.77;;
47481;SDS011;33219;47.410;9.730;2023-07-20T12:51:23;7.00;;;2.77;;
47481;SDS011;33219;47.410;9.730;2023-07-20T12:53:50;5.53;;;2.65;;
47481;SDS011;33219;47.410;9.730;2023-07-20T12:56:18;4.47;;;2.87;;
47481;SDS011;33219;47.410;9.730;2023-07-20T12:58:45;5.15;;;2.60;;
47481;SDS011;33219;47.410;9.730;2023-07-20T13:01:14;4.28;;;2.50;;
47481;SDS011;33219;47.410;9.730;2023-07-20T13:03:42;3.75;;;2.52;;
47481;SDS011;33219;47.410;9.730;2023-07-20T13:06:09;3.50;;;2.65;;
47481;SDS011;33219;47.410;9.730;2023-07-20T13:08:37;4.75;;;2.50;;
47481;SDS011;33219;47.410;9.730;2023-07-20T13:11:05;6.83;;;2.52;;
47481;SDS011;33219;47.410;9.730;2023-07-20T13:13:32;5.22;;;2.60;;
47481;SDS011;33219;47.410;9.730;2023-07-20T13:16:00;6.58;;;3.00;;
47481;SDS011;33219;47.410;9.730;2023-07-20T13:18:27;4.78;;;2.55;;
47481;SDS011;33219;47.410;9.730;2023-07-20T13:20:55;5.45;;;2.80;;
47481;SDS011;33219;47.410;9.730;2023-07-20T13:23:22;4.85;;;2.65;;
47481;SDS011;33219;47.410;9.730;2023-07-20T13:25:50;4.80;;;2.90;;
47481;SDS011;33219;47.410;9.730;2023-07-20T13:28:17;4.10;;;2.42;;
47481;SDS011;33219;47.410;9.730;2023-07-20T13:30:45;5.35;;;2.70;;
47481;SDS011;33219;47.410;9.730;2023-07-20T13:33:12;5.10;;;2.90;;
47481;SDS011;33219;47.410;9.730;2023-07-20T13:35:40;8.20;;;2.90;;
47481;SDS011;33219;47.410;9.730;2023-07-20T13:38:08;5.87;;;2.90;;
47481;SDS011;33219;47.410;9.730;2023-07-20T13:40:35;3.65;;;2.40;;
47481;SDS011;33219;47.410;9.730;2023-07-20T13:43:03;5.60;;;2.87;;
47481;SDS011;33219;47.410;9.730;2023-07-20T13:45:31;5.78;;;2.80;;
47481;SDS011;33219;47.410;9.730;2023-07-20T13:47:58;4.95;;;2.92;;
47481;SDS011;33219;47.410;9.730;2023-07-20T13:50:26;5.05;;;2.92;;
47481;SDS011;33219;47.410;9.730;2023-07-20T13:52:54;4.12;;;2.92;;
47481;SDS011;33219;47.410;9.730;2023-07-20T13:55:21;5.03;;;2.87;;
47481;SDS011;33219;47.410;9.730;2023-07-20T13:57:49;4.55;;;2.80;;
47481;SDS011;33219;47.410;9.730;2023-07-20T14:00:17;5.20;;;3.27;;
47481;SDS011;33219;47.410;9.730;2023-07-20T14:02:44;6.20;;;2.83;;
47481;SDS011;33219;47.410;9.730;2023-07-20T14:05:12;4.62;;;2.67;;
47481;SDS011;33219;47.410;9.730;2023-07-20T14:07:41;6.55;;;2.87;;
47481;SDS011;33219;47.410;9.730;2023-07-20T14:10:09;5.08;;;2.85;;
47481;SDS011;33219;47.410;9.730;2023-07-20T14:12:37;5.47;;;3.10;;
47481;SDS011;33219;47.410;9.730;2023-07-20T14:15:05;5.30;;;2.98;;
47481;SDS011;33219;47.410;9.730;2023-07-20T14:17:32;5.35;;;2.90;;
47481;SDS011;33219;47.410;9.730;2023-07-20T14:20:00;4.30;;;2.83;;
47481;SDS011;33219;47.410;9.730;2023-07-20T14:22:30;5.83;;;2.98;;
47481;SDS011;33219;47.410;9.730;2023-07-20T14:24:57;4.10;;;2.65;;
47481;SDS011;33219;47.410;9.730;2023-07-20T14:27:25;4.10;;;2.62;;
47481;SDS011;33219;47.410;9.730;2023-07-20T14:29:53;4.20;;;2.50;;
47481;SDS011;33219;47.410;9.730;2023-07-20T14:32:21;11.43;;;3.10;;
47481;SDS011;33219;47.410;9.730;2023-07-20T14:34:49;4.40;;;2.65;;
47481;SDS011;33219;47.410;9.730;2023-07-20T14:37:16;7.70;;;2.60;;
47481;SDS011;33219;47.410;9.730;2023-07-20T14:39:44;5.85;;;2.80;;
47481;SDS011;33219;47.410;9.730;2023-07-20T14:42:11;4.35;;;2.62;;
47481;SDS011;33219;47.410;9.730;2023-07-20T14:44:39;4.87;;;2.65;;
47481;SDS011;33219;47.410;9.730;2023-07-20T14:47:07;5.75;;;2.90;;
47481;SDS011;33219;47.410;9.730;2023-07-20T14:49:35;5.05;;;2.90;;
47481;SDS011;33219;47.410;9.730;2023-07-20T14:52:02;8.03;;;3.00;;
47481;SDS011;33219;47.410;9.730;2023-07-20T14:54:30;7.30;;;2.85;;
47481;SDS011;33219;47.410;9.730;2023-07-20T14:56:57;4.65;;;2.90;;
47481;SDS011;33219;47.410;9.730;2023-07-20T14:59:25;5.05;;;3.08;;
47481;SDS011;33219;47.410;9.730;2023-07-20T15:01:52;3.98;;;2.90;;
47481;SDS011;33219;47.410;9.730;2023-07-20T15:04:20;5.70;;;2.95;;
47481;SDS011;33219;47.410;9.730;2023-07-20T15:06:49;3.72;;;2.60;;
47481;SDS011;33219;47.410;9.730;2023-07-20T15:09:17;5.08;;;2.65;;
47481;SDS011;33219;47.410;9.730;2023-07-20T15:11:44;4.22;;;2.70;;
47481;SDS011;33219;47.410;9.730;2023-07-20T15:14:12;5.30;;;2.90;;
47481;SDS011;33219;47.410;9.730;2023-07-20T15:16:40;5.65;;;2.70;;
47481;SDS011;33219;47.410;9.730;2023-07-20T15:19:08;4.35;;;2.77;;
47481;SDS011;33219;47.410;9.730;2023-07-20T15:21:38;4.87;;;2.98;;
47481;SDS011;33219;47.410;9.730;2023-07-20T15:24:05;4.65;;;2.50;;